Home > Products > Valid Products > TAF

000
FTUS44 KFWD 210800 AAA
TAFACT
TAF AMD
KACT 210812Z 2108/2206 17014KT P6SM SCT020
     FM211030 17012KT P6SM BKN015
     FM211200 18011KT P6SM BKN025
     FM211400 19013KT P6SM SCT025 BKN035
     FM211600 17016KT P6SM FEW060=



000
FTUS44 KFWD 210500
TAFACT
TAF
KACT 210520Z 2106/2206 16015KT P6SM FEW250
     FM211200 19011KT P6SM BKN015
     FM211400 18013KT P6SM BKN025
     FM211600 17016KT P6SM SCT050=



000
FTUS44 KFWD 210500
TAFFTW
TAF
KFTW 210520Z 2106/2206 17015KT P6SM SKC
     FM211400 19015KT P6SM BKN025
     FM211700 17016KT P6SM SCT050=



000
FTUS44 KFWD 210500
TAFDFW
TAF
KDFW 210520Z 2106/2212 17015KT P6SM SKC
     FM211400 19015KT P6SM BKN025
     FM211700 17017KT P6SM SCT050=



000
FTUS44 KFWD 210300 AAA
TAFDFW
TAF AMD
KDFW 210300Z 2103/2206 17014KT P6SM SKC
     FM211500 19015KT P6SM BKN025
     FM211700 18016KT P6SM SCT050=



000
FTUS44 KFWD 210300 AAA
TAFACT
TAF AMD
KACT 210300Z 2103/2124 16014KT P6SM FEW250
     FM211100 19011KT P6SM BKN015
     FM211400 19013KT P6SM BKN025
     FM211600 18015KT P6SM SCT050=



000
FTUS44 KFWD 210300 AAA
TAFFTW
TAF AMD
KFTW 210300Z 2103/2124 17014KT P6SM SKC
     FM211500 19015KT P6SM BKN025
     FM211700 18016KT P6SM SCT050=



000
FTUS44 KFWD 202300
TAFDFW
TAF
KDFW 202328Z 2100/2206 17014KT P6SM FEW070
     FM211500 19015KT P6SM BKN025
     FM211700 18016KT P6SM SCT050=



000
FTUS44 KFWD 202300
TAFFTW
TAF
KFTW 202328Z 2100/2124 17014KT P6SM FEW070
     FM211500 19015KT P6SM BKN025
     FM211700 18016KT P6SM SCT050=



000
FTUS44 KFWD 202300
TAFACT
TAF
KACT 202328Z 2100/2124 16014KT P6SM SCT070 BKN200
     FM211100 19011KT P6SM BKN015
     FM211400 19013KT P6SM BKN025
     FM211600 18015KT P6SM SCT050=



000
FTUS44 KFWD 202000 AAA
TAFFTW
TAF AMD
KFTW 202050Z 2021/2118 17014KT P6SM FEW070 SCT150
     FM211500 18015KT P6SM BKN025
     FM211700 19015KT P6SM SCT040=



000
FTUS44 KFWD 202000 AAA
TAFACT
TAF AMD
KACT 202050Z 2021/2118 16014KT P6SM SCT060 BKN200
     FM211100 17013KT P6SM BKN015
     FM211700 19015KT P6SM SCT040=



000
FTUS44 KFWD 202000 AAA
TAFDFW
TAF AMD
KDFW 202050Z 2021/2124 17014KT P6SM FEW070 SCT150
     FM211500 18015KT P6SM BKN025
     FM211700 19015KT P6SM SCT040=



000
FTUS44 KFWD 201700
TAFACT
TAF
KACT 201732Z 2018/2118 16014KT P6SM SCT060 BKN200
     FM211100 17013KT P6SM BKN015
     FM211700 19015KT P6SM SCT040=



000
FTUS44 KFWD 201700
TAFDFW
TAF
KDFW 201732Z 2018/2124 17014KT P6SM FEW070 SCT150
     FM211500 18015KT P6SM BKN025
     FM211700 19015KT P6SM SCT040=



000
FTUS44 KFWD 201700
TAFFTW
TAF
KFTW 201732Z 2018/2118 17014KT P6SM FEW070 SCT150
     FM211500 18015KT P6SM BKN025
     FM211700 19015KT P6SM SCT040=



000
FTUS44 KFWD 201400 AAA
TAFFTW
TAF AMD
KFTW 201454Z 2015/2112 17014KT P6SM SCT070 BKN150=



000
FTUS44 KFWD 201400 AAA
TAFDFW
TAF AMD
KDFW 201454Z 2015/2118 17014KT P6SM SCT070 BKN150=



000
FTUS44 KFWD 201400 AAA
TAFACT
TAF AMD
KACT 201454Z 2015/2112 18014KT P6SM SCT018 BKN200
      TEMPO 2015/2017 BKN018
     FM201800 16014KT P6SM SCT060 BKN200
     FM211100 17013KT P6SM BKN015=



000
FTUS44 KFWD 201100 RRA
TAFFTW
TAF
KFTW 201142Z 2012/2112 19011KT P6SM BKN110 BKN180
     FM201700 16015KT P6SM SCT060 SCT150=



000
FTUS44 KFWD 201100 RRA
TAFACT
TAF
KACT 201142Z 2012/2112 19010KT P6SM SCT025 BKN200
      TEMPO 2013/2015 BKN025
     FM201800 16015KT P6SM SCT060 SCT250
     FM211100 17013KT P6SM BKN015=



000
FTUS44 KFWD 201100 RRA
TAFDFW
TAF
KDFW 201142Z 2012/2118 19011KT P6SM BKN110 BKN180
     FM201700 16015KT P6SM SCT060 SCT150=



000
FTUS44 KFWD 200900 AAA
TAFFTW
TAF AMD
KFTW 200906Z 2009/2106 18012KT P6SM BKN110 BKN180
     FM201600 18016KT P6SM SCT040 SCT140=



000
FTUS44 KFWD 200900 AAA
TAFACT
TAF AMD
KACT 200906Z 2009/2106 19012KT P6SM SCT025 BKN200
     FM201800 17015KT P6SM SCT040 SCT250=



000
FTUS44 KFWD 200900 AAA
TAFDFW
TAF AMD
KDFW 200906Z 2009/2112 18012KT P6SM BKN110 BKN180
     FM201600 18016KT P6SM SCT040 SCT140
     FM210100 17012KT P6SM FEW250=



000
FTUS44 KFWD 200500
TAFACT
TAF
KACT 200527Z 2006/2106 16013KT P6SM SCT110 BKN150
     FM201600 17014KT P6SM SCT040=



000
FTUS44 KFWD 200500
TAFFTW
TAF
KFTW 200527Z 2006/2106 16012KT P6SM SCT110 BKN150
     FM201600 18016KT P6SM SCT040 SCT140=



000
FTUS44 KFWD 200500
TAFDFW
TAF
KDFW 200527Z 2006/2112 16012KT P6SM SCT110 BKN150
     FM201600 18016KT P6SM SCT040 SCT140
     FM210100 17012KT P6SM FEW250=



000
FTUS44 KFWD 200300 AAB
TAFACT
TAF AMD
KACT 200300Z 2003/2024 15009KT P6SM OVC120
     FM201600 17014KT P6SM SCT040=



000
FTUS44 KFWD 200300 AAB
TAFFTW
TAF AMD
KFTW 200300Z 2003/2024 16007KT P6SM OVC120
     FM201500 19014KT P6SM SCT040=



000
FTUS44 KFWD 200300 AAB
TAFDFW
TAF AMD
KDFW 200300Z 2003/2106 16008KT P6SM OVC120
      TEMPO 2003/2004 14015KT
     FM201500 19014KT P6SM SCT040
     FM210100 17012KT P6SM FEW250=



000
FTUS44 KFWD 200200 AAA
TAFACT
TAF AMD
KACT 200213Z 2002/2024 18009KT P6SM BKN150
      TEMPO 2002/2003 13017KT
     FM201600 17014KT P6SM SCT040=



000
FTUS44 KFWD 200100 AAA
TAFDFW
TAF AMD
KDFW 200141Z 2002/2106 16008KT P6SM BKN120
      TEMPO 2002/2003 14015KT
     FM201500 19014KT P6SM SCT040
     FM210100 17012KT P6SM FEW250=



000
FTUS44 KFWD 200000 AAA
TAFFTW
TAF AMD
KFTW 200056Z 2001/2024 16013KT P6SM VCSH SCT050 BKN180
     FM200200 17013KT P6SM FEW050 BKN180
     FM201500 19014KT P6SM SCT040=



000
FTUS44 KFWD 192300
TAFFTW
TAF
KFTW 192324Z 2000/2024 17011KT P6SM SCT200
     FM201500 19014KT P6SM SCT040=



000
FTUS44 KFWD 192300
TAFACT
TAF
KACT 192324Z 2000/2024 18010KT P6SM SCT150
     FM201600 17014KT P6SM SCT040=



000
FTUS44 KFWD 192300
TAFDFW
TAF
KDFW 192324Z 2000/2106 17011KT P6SM SCT200
     FM201500 19014KT P6SM SCT040
     FM210100 17012KT P6SM FEW250=



000
FTUS44 KFWD 192200 AAB
TAFDFW
TAF AMD
KDFW 192253Z 1923/2024 19012KT P6SM FEW060 SCT180
     FM200000 17009KT P6SM SCT200
     FM201500 19014KT P6SM SCT040=



000
FTUS44 KFWD 192200 AAB
TAFACT
TAF AMD
KACT 192253Z 1923/2018 19011KT P6SM FEW060 BKN150=



000
FTUS44 KFWD 192200 AAB
TAFFTW
TAF AMD
KFTW 192253Z 1923/2018 17012KT P6SM FEW060 SCT180
     FM200000 17009KT P6SM SCT200
     FM201500 19014KT P6SM SCT040=



000
FTUS44 KFWD 192000 AAA
TAFDFW
TAF AMD
KDFW 192046Z 1921/2024 20012KT P6SM SCT060 BKN250
     FM192200 17012KT P6SM VCTS SCT070CB BKN250
     FM200000 17009KT P6SM BKN200
     FM201500 19014KT P6SM SCT040=



000
FTUS44 KFWD 192000 AAA
TAFFTW
TAF AMD
KFTW 192046Z 1921/2018 20012KT P6SM SCT060 BKN250
     FM192200 17012KT P6SM VCTS SCT070CB BKN250
     FM200000 17009KT P6SM BKN200
     FM201500 19014KT P6SM SCT040=



000
FTUS44 KFWD 192000 AAA
TAFACT
TAF AMD
KACT 192046Z 1921/2018 20011KT P6SM SCT050 BKN150=



000
FTUS44 KFWD 191700
TAFFTW
TAF
KFTW 191731Z 1918/2018 19012KT P6SM SCT040 BKN250
     FM191900 18012KT P6SM VCTS SCT070CB BKN250
     FM192300 17009KT P6SM BKN200
     FM201500 19014KT P6SM SCT040=



000
FTUS44 KFWD 191700
TAFDFW
TAF
KDFW 191731Z 1918/2024 19012KT P6SM SCT040 BKN250
     FM191900 18012KT P6SM VCTS SCT070CB BKN250
     FM192300 17009KT P6SM BKN200
     FM201500 19014KT P6SM SCT040=



000
FTUS44 KFWD 191700
TAFACT
TAF
KACT 191731Z 1918/2018 20014KT P6SM SCT050 BKN150=



000
FTUS44 KFWD 191400 AAA
TAFFTW
TAF AMD
KFTW 191453Z 1915/2012 13011KT P6SM SCT150 BKN250
     FM191800 19012KT P6SM VCTS SCT060CB BKN150
     FM192100 18012KT P6SM SCT070 BKN250=



000
FTUS44 KFWD 191400 AAA
TAFDFW
TAF AMD
KDFW 191453Z 1915/2018 14010KT P6SM SCT150 BKN250
     FM191800 19012KT P6SM VCTS SCT060CB BKN150
     FM192100 18012KT P6SM SCT070 BKN250=



000
FTUS44 KFWD 191400 AAA
TAFACT
TAF AMD
KACT 191453Z 1915/2012 19012KT P6SM SCT050 BKN150=



000
FTUS44 KFWD 191100
TAFFTW
TAF
KFTW 191120Z 1912/2012 VRB06KT P6SM BKN150
     FM191500 19012KT P6SM SCT150 BKN200
     FM191800 19012KT P6SM VCTS SCT060CB BKN150
     FM192100 18012KT P6SM SCT070 BKN250=



000
FTUS44 KFWD 191100
TAFDFW
TAF
KDFW 191120Z 1912/2018 VRB06KT P6SM BKN150
     FM191500 19012KT P6SM SCT150 BKN200
     FM191800 19012KT P6SM VCTS SCT060CB BKN150
     FM192100 18012KT P6SM SCT070 BKN250=



000
FTUS44 KFWD 191100
TAFACT
TAF
KACT 191120Z 1912/2012 VRB04KT P6SM BKN120
     FM191500 19012KT P6SM SCT050 BKN150=



000
FTUS44 KFWD 190900 AAC
TAFFTW
TAF AMD
KFTW 190910Z 1909/2006 25007KT P6SM VCSH SCT030 BKN150
     FM191000 20011KT P6SM SCT150=



000
FTUS44 KFWD 190900 AAB
TAFDFW
TAF AMD
KDFW 190910Z 1909/2012 24007KT P6SM BKN150
     FM191200 19012KT P6SM SCT150=



000
FTUS44 KFWD 190900 AAA
TAFACT
TAF AMD
KACT 190910Z 1909/2006 22006KT P6SM BKN120
     FM191500 18014KT P6SM SCT150=



000
FTUS44 KFWD 190700 AAB
TAFFTW
TAF AMD
KFTW 190800Z 1908/2006 23007KT P6SM VCSH SCT030 BKN150
      TEMPO 1908/1910 26015KT
     FM191000 20011KT P6SM SCT150=



000
FTUS44 KFWD 190700 AAA
TAFDFW
TAF AMD
KDFW 190800Z 1908/2012 23007KT P6SM BKN150
      TEMPO 1908/1910 26015KT
     FM191200 19012KT P6SM SCT150=



000
FTUS44 KFWD 190600 AAA
TAFFTW
TAF AMD
KFTW 190643Z 1907/2006 27007KT P6SM VCSH SCT030 BKN150
     FM191000 20011KT P6SM SCT150=



000
FTUS44 KFWD 190500
TAFACT
TAF
KACT 190530Z 1906/2006 18006KT P6SM BKN150
     FM191500 18014KT P6SM SCT150=



000
FTUS44 KFWD 190500
TAFDFW
TAF
KDFW 190530Z 1906/2012 12006KT P6SM BKN150
      TEMPO 1906/1908 14013KT
     FM191200 19012KT P6SM SCT150=



000
FTUS44 KFWD 190500
TAFFTW
TAF
KFTW 190530Z 1906/2006 12006KT P6SM VCSH BKN150
      TEMPO 1906/1908 23016KT 3SM TSRA BKN050CB
     FM191000 20011KT P6SM SCT150=



000
FTUS44 KFWD 190400 AAB
TAFFTW
TAF AMD
KFTW 190441Z 1905/1924 14006KT P6SM BKN150
      TEMPO 1905/1907 22015KT
     FM191000 20011KT P6SM SCT150=



000
FTUS44 KFWD 190200 AAA
TAFDFW
TAF AMD
KDFW 190256Z 1903/2006 15005KT P6SM BKN150
     FM191000 20011KT P6SM SCT150=



000
FTUS44 KFWD 190200 AAA
TAFFTW
TAF AMD
KFTW 190256Z 1903/1924 14006KT P6SM BKN150
     FM191000 20011KT P6SM SCT150=



000
FTUS44 KFWD 190200 AAB
TAFACT
TAF AMD
KACT 190256Z 1903/1924 30004KT P6SM VCTS SCT080CB BKN140
     FM190400 17006KT P6SM BKN150=



000
FTUS44 KFWD 190200 AAA
TAFACT
TAF AMD
KACT 190208Z 1902/1924 19006KT P6SM VCTS BKN070CB
     FM190300 17006KT P6SM BKN150=



000
FTUS44 KFWD 182300
TAFACT
TAF
KACT 182320Z 1900/1924 19006KT P6SM VCTS BKN070CB
     FM190200 17006KT P6SM BKN150=



000
FTUS44 KFWD 182300
TAFDFW
TAF
KDFW 182320Z 1900/2006 18007KT P6SM VCSH FEW070 BKN150
     FM190100 17006KT P6SM BKN150
     FM191000 20011KT P6SM SCT150=



000
FTUS44 KFWD 182300
TAFFTW
TAF
KFTW 182320Z 1900/1924 19007KT P6SM VCSH FEW070 BKN150
     FM190100 17006KT P6SM BKN150
     FM191000 20011KT P6SM SCT150=



000
FTUS44 KFWD 182000 AAA
TAFACT
TAF AMD
KACT 182045Z 1821/1918 19009KT P6SM VCTS SCT070CB
     FM190000 17006KT P6SM BKN150=



000
FTUS44 KFWD 182000 AAB
TAFDFW
TAF AMD
KDFW 182045Z 1821/1924 19009KT P6SM VCSH SCT070 BKN150
     FM190000 17006KT P6SM BKN150
     FM191000 20011KT P6SM SCT150=



000
FTUS44 KFWD 182000 AAB
TAFFTW
TAF AMD
KFTW 182045Z 1821/1918 19009KT P6SM VCSH SCT070 BKN150
     FM190000 17006KT P6SM BKN150
     FM191000 20011KT P6SM SCT150=



000
FTUS44 KFWD 181900 AAA
TAFDFW
TAF AMD
KDFW 181947Z 1820/1924 18007KT P6SM SCT150 BKN250
     FM182200 19009KT P6SM VCTS SCT070CB BKN150
     FM190000 17006KT P6SM BKN150
     FM191000 20011KT P6SM SCT150=



000
FTUS44 KFWD 181900 AAA
TAFFTW
TAF AMD
KFTW 181947Z 1820/1918 18007KT P6SM SCT150 BKN250
     FM182200 19009KT P6SM VCTS SCT070CB BKN150
     FM190000 17006KT P6SM BKN150
     FM191000 20011KT P6SM SCT150=



000
FTUS44 KFWD 181700
TAFFTW
TAF
KFTW 181725Z 1818/1918 18007KT P6SM SCT150 BKN250
     FM182000 19009KT P6SM VCTS SCT070CB BKN150
     FM182300 17006KT P6SM BKN150
     FM191000 20011KT P6SM SCT150=



000
FTUS44 KFWD 181700
TAFACT
TAF
KACT 181725Z 1818/1918 18007KT P6SM SCT150 BKN250
     FM182000 19009KT P6SM VCTS SCT070CB
     FM190000 17006KT P6SM BKN150=



000
FTUS44 KFWD 181700
TAFDFW
TAF
KDFW 181725Z 1818/1924 18007KT P6SM SCT150 BKN250
     FM182000 19009KT P6SM VCTS SCT070CB BKN150
     FM182300 17006KT P6SM BKN150
     FM191000 20011KT P6SM SCT150=



000
FTUS44 KFWD 181500 AAB
TAFFTW
TAF AMD
KFTW 181523Z 1815/1912 18007KT P6SM VCSH SCT150 BKN250
     FM181900 19009KT P6SM VCTS SCT070CB
     FM190000 17006KT P6SM BKN150=



000
FTUS44 KFWD 181500 AAB
TAFDFW
TAF AMD
KDFW 181523Z 1815/1918 18007KT P6SM VCSH SCT150 BKN250
     FM181900 19009KT P6SM VCTS SCT070CB
     FM190000 17006KT P6SM BKN150=



000
FTUS44 KFWD 181400 AAA
TAFACT
TAF AMD
KACT 181458Z 1815/1912 18007KT P6SM SCT150 BKN250
     FM182000 19009KT P6SM VCTS SCT070CB
     FM190000 17006KT P6SM BKN150=



000
FTUS44 KFWD 181400 AAA
TAFDFW
TAF AMD
KDFW 181458Z 1815/1918 18007KT P6SM SCT150 BKN250
     FM182000 19009KT P6SM VCTS SCT070CB
     FM190000 17006KT P6SM BKN150=



000
FTUS44 KFWD 181400 AAA
TAFFTW
TAF AMD
KFTW 181458Z 1815/1912 18007KT P6SM SCT150 BKN250
     FM182000 19009KT P6SM VCTS SCT070CB
     FM190000 17006KT P6SM BKN150=



000
FTUS44 KFWD 181100
TAFACT
TAF
KACT 181120Z 1812/1912 18008KT P6SM BKN120
     FM181700 19011KT P6SM SCT070 BKN250=



000
FTUS44 KFWD 181100
TAFDFW
TAF
KDFW 181120Z 1812/1918 18004KT P6SM SCT120 BKN250
     FM181800 19010KT P6SM SCT070=



000
FTUS44 KFWD 181100
TAFFTW
TAF
KFTW 181120Z 1812/1912 18004KT P6SM SCT120 BKN250
     FM181800 19010KT P6SM SCT070=



000
FTUS44 KFWD 180900 AAA
TAFFTW
TAF AMD
KFTW 180906Z 1809/1906 18004KT P6SM SCT120 BKN250
     FM181800 20012KT P6SM SCT070=



000
FTUS44 KFWD 180900 AAA
TAFACT
TAF AMD
KACT 180906Z 1809/1906 19007KT P6SM BKN120
     FM181700 19011KT P6SM SCT070 BKN250=



000
FTUS44 KFWD 180900 AAA
TAFDFW
TAF AMD
KDFW 180906Z 1809/1912 18004KT P6SM SCT120 BKN250
     FM181800 20012KT P6SM SCT070=



    US Dept of Commerce
    National Oceanic and Atmospheric Administration
    National Weather Service
    1325 East West Highway
    Silver Spring, MD 20910
    Page Author: NWS Internet Services Team
Disclaimer
Information Quality
Credits
Glossary
Privacy Policy
Freedom of Information Act (FOIA)
About Us
Career Opportunities